createdAt,value
2018-12-08T00:01:53.760Z,7.50
2018-12-08T00:04:21.278Z,7.50
2018-12-08T00:06:48.762Z,7.30
2018-12-08T00:09:16.247Z,7.20
2018-12-08T00:11:43.746Z,7.10
2018-12-08T00:14:11.230Z,7.10
2018-12-08T00:16:38.766Z,6.90
2018-12-08T00:19:06.267Z,6.80
2018-12-08T00:21:33.750Z,6.70
2018-12-08T00:24:01.298Z,6.60
2018-12-08T00:26:28.877Z,6.50
2018-12-08T00:28:56.390Z,6.40
2018-12-08T00:31:35.763Z,6.40
2018-12-08T00:34:03.346Z,6.30
2018-12-08T00:36:30.839Z,6.30
2018-12-08T00:38:58.366Z,6.40
2018-12-08T00:41:25.853Z,6.20
2018-12-08T00:43:53.350Z,6.10
2018-12-08T00:46:20.849Z,6.10
2018-12-08T00:48:48.333Z,6.00
2018-12-08T00:51:15.818Z,5.90
2018-12-08T00:53:43.440Z,6.00
2018-12-08T00:56:10.973Z,6.00
2018-12-08T00:58:38.489Z,6.10
2018-12-08T01:01:06.010Z,6.10
2018-12-08T01:03:33.500Z,6.10
2018-12-08T01:06:00.990Z,6.10
2018-12-08T01:08:28.558Z,6.20
2018-12-08T01:10:56.050Z,6.20
2018-12-08T01:13:23.667Z,6.20
2018-12-08T01:15:51.188Z,6.20
2018-12-08T01:18:18.762Z,6.20
2018-12-08T01:20:46.300Z,6.20
2018-12-08T01:23:13.819Z,6.20
2018-12-08T01:25:41.330Z,6.20
2018-12-08T01:28:08.822Z,6.10
2018-12-08T01:30:36.309Z,6.10
2018-12-08T01:33:03.813Z,6.00
2018-12-08T01:35:31.313Z,6.00
2018-12-08T01:37:58.818Z,6.00
2018-12-08T01:40:26.333Z,5.90
2018-12-08T01:42:56.622Z,5.80
2018-12-08T01:45:24.485Z,5.70
2018-12-08T01:47:52.063Z,5.80
2018-12-08T01:50:19.693Z,5.80
2018-12-08T01:52:47.179Z,5.80
2018-12-08T01:55:14.667Z,5.70
2018-12-08T01:57:42.169Z,5.80
2018-12-08T02:00:09.677Z,5.70
2018-12-08T02:02:37.214Z,5.60
2018-12-08T02:05:04.889Z,5.50
2018-12-08T02:07:32.370Z,5.40
2018-12-08T02:09:59.893Z,5.40
2018-12-08T02:12:27.378Z,5.30
2018-12-08T02:14:54.919Z,5.30
2018-12-08T02:17:22.401Z,5.40
2018-12-08T02:19:49.889Z,5.40
2018-12-08T02:22:17.510Z,5.40
2018-12-08T02:24:45.001Z,5.50
2018-12-08T02:27:12.525Z,5.40
2018-12-08T02:29:40.012Z,5.30
2018-12-08T02:32:07.497Z,5.30
2018-12-08T02:34:35.103Z,5.20
2018-12-08T02:37:02.592Z,5.30
2018-12-08T02:39:30.110Z,5.20
2018-12-08T02:41:57.588Z,5.00
2018-12-08T02:44:25.069Z,4.70
2018-12-08T02:46:52.819Z,4.60
2018-12-08T02:49:20.348Z,4.70
2018-12-08T02:51:47.858Z,4.50
2018-12-08T02:54:15.344Z,4.60
2018-12-08T02:56:42.827Z,4.80
2018-12-08T02:59:10.323Z,4.70
2018-12-08T03:01:37.809Z,4.70
2018-12-08T03:04:05.340Z,4.70
2018-12-08T03:06:32.827Z,4.70
2018-12-08T03:09:00.315Z,4.60
2018-12-08T03:11:27.814Z,4.50
2018-12-08T03:13:55.338Z,4.50
2018-12-08T03:16:22.918Z,4.40
2018-12-08T03:18:50.406Z,4.30
2018-12-08T03:21:17.886Z,4.20
2018-12-08T03:23:45.389Z,4.10
2018-12-08T03:26:12.874Z,4.20
2018-12-08T03:28:40.380Z,4.20
2018-12-08T03:31:07.883Z,4.20
2018-12-08T03:33:35.472Z,4.10
2018-12-08T03:36:02.983Z,4.30
2018-12-08T03:38:30.467Z,4.40
2018-12-08T03:40:58.014Z,4.50
2018-12-08T03:43:25.613Z,4.50
2018-12-08T03:45:53.097Z,4.60
2018-12-08T03:48:20.598Z,4.70
2018-12-08T03:50:48.115Z,4.70
2018-12-08T03:53:15.617Z,4.60
2018-12-08T03:55:44.958Z,4.60
2018-12-08T03:58:12.614Z,4.60
2018-12-08T04:00:40.198Z,4.60
2018-12-08T04:03:07.698Z,4.60
2018-12-08T04:05:35.207Z,4.60
2018-12-08T04:08:02.689Z,4.60
2018-12-08T04:10:30.175Z,4.50
2018-12-08T04:12:57.678Z,4.50
2018-12-08T04:15:25.178Z,4.50
2018-12-08T04:17:52.682Z,4.50
2018-12-08T04:20:20.192Z,4.40
2018-12-08T04:22:47.684Z,4.40
2018-12-08T04:25:15.186Z,4.40
2018-12-08T04:27:42.667Z,4.40
2018-12-08T04:30:10.167Z,4.30
2018-12-08T04:32:37.654Z,4.40
2018-12-08T04:35:05.509Z,4.40
2018-12-08T04:37:33.006Z,4.50
2018-12-08T04:40:00.491Z,4.50
2018-12-08T04:42:27.990Z,4.40
2018-12-08T04:44:55.465Z,4.50
2018-12-08T04:47:22.947Z,4.60
2018-12-08T04:49:50.445Z,4.60
2018-12-08T04:52:17.961Z,4.70
2018-12-08T04:54:45.464Z,4.70
2018-12-08T04:57:12.946Z,4.60
2018-12-08T04:59:40.429Z,4.50
2018-12-08T05:02:07.930Z,4.50
2018-12-08T05:04:35.495Z,4.30
2018-12-08T05:07:02.996Z,4.40
2018-12-08T05:09:30.497Z,4.50
2018-12-08T05:11:57.977Z,4.50
2018-12-08T05:14:25.477Z,4.50
2018-12-08T05:16:52.957Z,4.50
2018-12-08T05:19:20.465Z,4.60
2018-12-08T05:21:47.962Z,4.70
2018-12-08T05:24:15.436Z,4.60
2018-12-08T05:26:42.946Z,4.70
2018-12-08T05:29:10.434Z,4.70
2018-12-08T05:31:37.933Z,4.70
2018-12-08T05:34:05.460Z,4.60
2018-12-08T05:36:32.945Z,4.60
2018-12-08T05:39:00.483Z,4.60
2018-12-08T05:41:27.962Z,4.60
2018-12-08T05:43:55.466Z,4.60
2018-12-08T05:46:22.946Z,4.50
2018-12-08T05:48:50.434Z,4.50
2018-12-08T05:51:17.933Z,4.50
2018-12-08T05:53:45.421Z,4.50
2018-12-08T05:56:12.930Z,4.60
2018-12-08T05:58:40.439Z,4.60
2018-12-08T06:01:07.914Z,4.50
2018-12-08T06:03:35.428Z,4.50
2018-12-08T06:06:02.924Z,4.50
2018-12-08T06:08:30.436Z,4.50
2018-12-08T06:10:57.918Z,4.50
2018-12-08T06:13:25.403Z,4.50
2018-12-08T06:15:52.922Z,4.50
2018-12-08T06:18:20.400Z,4.50
2018-12-08T06:20:47.910Z,4.50
2018-12-08T06:23:15.501Z,4.40
2018-12-08T06:25:43.098Z,4.40
2018-12-08T06:28:13.362Z,4.40
2018-12-08T06:30:40.952Z,4.40
2018-12-08T06:33:08.438Z,4.40
2018-12-08T06:35:36.029Z,4.30
2018-12-08T06:38:03.514Z,4.20
2018-12-08T06:40:31.074Z,4.10
2018-12-08T06:42:58.574Z,4.10
2018-12-08T06:45:26.053Z,4.10
2018-12-08T06:47:53.556Z,4.10
2018-12-08T06:50:21.037Z,4.10
2018-12-08T06:52:48.542Z,4.20
2018-12-08T06:55:16.037Z,4.40
2018-12-08T06:57:43.519Z,4.30
2018-12-08T07:00:11.027Z,4.40
2018-12-08T07:02:38.513Z,4.40
2018-12-08T07:05:06.010Z,4.40
2018-12-08T07:07:33.510Z,4.40
2018-12-08T07:10:00.987Z,4.20
2018-12-08T07:12:28.501Z,4.30
2018-12-08T07:14:55.982Z,4.40
2018-12-08T07:17:23.505Z,4.50
2018-12-08T07:19:51.006Z,4.60
2018-12-08T07:22:18.484Z,4.50
2018-12-08T07:24:45.986Z,4.50
2018-12-08T07:27:13.464Z,4.50
2018-12-08T07:29:40.970Z,4.70
2018-12-08T07:32:08.467Z,5.60
2018-12-08T07:34:35.955Z,6.70
2018-12-08T07:37:03.546Z,6.90
2018-12-08T07:39:31.036Z,7.40
2018-12-08T07:41:58.529Z,8.30
2018-12-08T07:44:26.042Z,8.70
2018-12-08T07:46:53.533Z,8.80
2018-12-08T07:49:21.042Z,8.30
2018-12-08T07:51:48.550Z,7.70
2018-12-08T07:54:16.033Z,7.00
2018-12-08T07:56:43.542Z,6.60
2018-12-08T07:59:11.030Z,6.40
2018-12-08T08:01:38.541Z,6.20
2018-12-08T08:04:06.042Z,6.20
2018-12-08T08:06:33.525Z,6.10
2018-12-08T08:09:01.026Z,6.20
2018-12-08T08:11:28.514Z,6.20
2018-12-08T08:13:56.029Z,6.20
2018-12-08T08:16:23.541Z,6.10
2018-12-08T08:18:51.029Z,7.20
2018-12-08T08:21:18.558Z,8.20
2018-12-08T08:23:46.045Z,8.30
2018-12-08T08:26:13.555Z,8.30
2018-12-08T08:28:41.153Z,8.70
2018-12-08T08:31:08.725Z,8.10
2018-12-08T08:33:36.229Z,7.80
2018-12-08T08:36:03.714Z,7.50
2018-12-08T08:38:31.219Z,8.00
2018-12-08T08:40:58.706Z,9.10
2018-12-08T08:43:26.201Z,9.30
2018-12-08T08:45:53.700Z,8.80
2018-12-08T08:48:21.182Z,8.60
2018-12-08T08:50:48.698Z,8.10
2018-12-08T08:53:16.183Z,7.60
2018-12-08T08:55:43.681Z,7.20
2018-12-08T08:58:12.109Z,6.90
2018-12-08T09:00:39.597Z,6.70
2018-12-08T09:03:07.137Z,6.50
2018-12-08T09:05:34.646Z,6.40
2018-12-08T09:08:02.159Z,6.40
2018-12-08T09:10:29.662Z,6.30
2018-12-08T09:12:57.146Z,6.40
2018-12-08T09:15:24.666Z,6.40
2018-12-08T09:17:52.156Z,6.40
2018-12-08T09:20:19.658Z,6.50
2018-12-08T09:22:47.166Z,6.40
2018-12-08T09:25:14.668Z,6.40
2018-12-08T09:27:42.281Z,6.40
2018-12-08T09:30:10.056Z,6.40
2018-12-08T09:32:37.544Z,6.40
2018-12-08T09:35:05.336Z,6.40
2018-12-08T09:37:32.824Z,6.20
2018-12-08T09:40:00.337Z,6.20
2018-12-08T09:42:27.842Z,6.20
2018-12-08T09:44:55.366Z,6.30
2018-12-08T09:47:22.934Z,6.30
2018-12-08T09:49:50.618Z,6.30
2018-12-08T09:52:18.126Z,6.40
2018-12-08T09:54:47.445Z,6.40
2018-12-08T09:57:16.091Z,6.40
2018-12-08T09:59:43.784Z,6.50
2018-12-08T10:02:11.269Z,6.50
2018-12-08T10:04:38.778Z,6.60
2018-12-08T10:07:06.270Z,6.70
2018-12-08T10:09:33.835Z,6.70
2018-12-08T10:12:01.330Z,6.80
2018-12-08T10:14:28.928Z,6.80
2018-12-08T10:16:56.433Z,6.90
2018-12-08T10:19:23.933Z,6.80
2018-12-08T10:21:51.449Z,6.90
2018-12-08T10:24:18.955Z,6.90
2018-12-08T10:26:46.451Z,6.80
2018-12-08T10:29:13.962Z,6.80
2018-12-08T10:31:41.458Z,6.80
2018-12-08T10:34:08.992Z,6.80
2018-12-08T10:36:36.477Z,6.80
2018-12-08T10:39:06.237Z,6.80
2018-12-08T10:41:33.738Z,6.70
2018-12-08T10:44:01.221Z,6.80
2018-12-08T10:46:28.742Z,6.80
2018-12-08T10:48:56.257Z,6.80
2018-12-08T10:51:23.742Z,6.80
2018-12-08T10:53:51.261Z,6.80
2018-12-08T10:56:18.750Z,6.80
2018-12-08T10:58:46.261Z,6.80
2018-12-08T11:01:19.116Z,6.80
2018-12-08T11:03:47.807Z,6.90
2018-12-08T11:06:17.022Z,6.90
2018-12-08T11:08:44.709Z,6.90
2018-12-08T11:11:12.259Z,6.90
2018-12-08T11:13:40.444Z,6.90
2018-12-08T11:16:07.962Z,7.00
2018-12-08T11:18:35.449Z,7.00
2018-12-08T11:21:02.933Z,7.00
2018-12-08T11:23:30.439Z,7.10
2018-12-08T11:25:57.935Z,7.10
2018-12-08T11:28:25.450Z,7.20
2018-12-08T11:30:52.946Z,7.20
2018-12-08T11:33:20.442Z,7.30
2018-12-08T11:35:49.692Z,7.30
2018-12-08T11:38:17.425Z,7.40
2018-12-08T11:40:44.952Z,7.40
2018-12-08T11:43:12.439Z,7.50
2018-12-08T11:45:39.929Z,7.60
2018-12-08T11:48:07.502Z,7.70
2018-12-08T11:50:34.998Z,7.60
2018-12-08T11:53:02.596Z,7.70
2018-12-08T11:55:30.670Z,7.90
2018-12-08T11:57:58.214Z,7.90
2018-12-08T12:00:27.215Z,8.00
2018-12-08T12:02:55.782Z,8.00
2018-12-08T12:05:23.476Z,8.00
2018-12-08T12:07:51.126Z,8.00
2018-12-08T12:10:18.610Z,8.00
2018-12-08T12:12:46.196Z,8.00
2018-12-08T12:15:13.770Z,7.90
2018-12-08T12:17:41.250Z,7.90
2018-12-08T12:20:08.841Z,7.90
2018-12-08T12:22:36.323Z,7.90
2018-12-08T12:25:05.482Z,7.90
2018-12-08T12:27:32.991Z,7.90
2018-12-08T12:30:00.479Z,7.90
2018-12-08T12:32:27.993Z,7.90
2018-12-08T12:34:55.477Z,7.90
2018-12-08T12:37:23.052Z,7.90
2018-12-08T12:39:50.593Z,7.90
2018-12-08T12:42:18.090Z,7.90
2018-12-08T12:44:45.622Z,7.90
2018-12-08T12:47:13.117Z,7.90
2018-12-08T12:49:40.601Z,7.80
2018-12-08T12:52:08.097Z,7.80
2018-12-08T12:54:35.581Z,7.80
2018-12-08T12:57:03.195Z,7.70
2018-12-08T12:59:30.682Z,7.80
2018-12-08T13:01:58.166Z,7.80
2018-12-08T13:04:25.675Z,7.80
2018-12-08T13:06:53.174Z,7.80
2018-12-08T13:09:20.696Z,7.80
2018-12-08T13:11:48.574Z,7.80
2018-12-08T13:14:16.075Z,7.80
2018-12-08T13:16:43.574Z,7.80
2018-12-08T13:19:11.086Z,7.80
2018-12-08T13:21:38.600Z,7.80
2018-12-08T13:24:06.084Z,7.80
2018-12-08T13:26:33.579Z,7.80
2018-12-08T13:29:01.084Z,7.70
2018-12-08T13:31:28.574Z,7.70
2018-12-08T13:33:56.073Z,7.70
2018-12-08T13:36:23.554Z,7.70
2018-12-08T13:38:51.054Z,7.70
2018-12-08T13:41:18.554Z,7.70
2018-12-08T13:43:50.024Z,7.70
2018-12-08T13:46:17.529Z,7.70
2018-12-08T13:48:45.093Z,7.70
2018-12-08T13:51:12.673Z,7.70
2018-12-08T13:53:41.013Z,7.70
2018-12-08T13:56:08.534Z,7.70
2018-12-08T13:58:36.033Z,7.60
2018-12-08T14:01:03.550Z,7.60
2018-12-08T14:03:31.057Z,7.60
2018-12-08T14:05:58.538Z,7.60
2018-12-08T14:08:26.023Z,7.60
2018-12-08T14:10:53.526Z,7.60
2018-12-08T14:13:21.012Z,7.60
2018-12-08T14:15:48.519Z,7.60
2018-12-08T14:18:16.011Z,7.60
2018-12-08T14:20:43.511Z,7.60
2018-12-08T14:23:11.009Z,7.50
2018-12-08T14:25:38.501Z,7.50
2018-12-08T14:28:06.500Z,7.50
2018-12-08T14:30:33.992Z,7.50
2018-12-08T14:33:01.477Z,7.50
2018-12-08T14:35:28.986Z,7.50
2018-12-08T14:37:56.481Z,7.40
2018-12-08T14:40:23.985Z,7.40
2018-12-08T14:42:51.466Z,7.40
2018-12-08T14:45:18.953Z,7.40
2018-12-08T14:47:46.459Z,7.40
2018-12-08T14:50:13.946Z,7.40
2018-12-08T14:52:41.459Z,7.40
2018-12-08T14:55:09.234Z,7.40
2018-12-08T14:57:36.715Z,7.40
2018-12-08T15:00:06.673Z,7.40
2018-12-08T15:02:34.170Z,7.40
2018-12-08T15:05:01.677Z,7.30
2018-12-08T15:07:29.194Z,7.30
2018-12-08T15:09:56.681Z,7.30
2018-12-08T15:12:24.214Z,7.30
2018-12-08T15:14:51.710Z,7.30
2018-12-08T15:17:19.230Z,7.20
2018-12-08T15:19:46.716Z,7.30
2018-12-08T15:22:14.206Z,7.20
2018-12-08T15:24:41.846Z,7.20
2018-12-08T15:27:09.328Z,7.20
2018-12-08T15:29:36.837Z,7.20
2018-12-08T15:32:04.337Z,7.20
2018-12-08T15:34:31.856Z,7.20
2018-12-08T15:36:59.368Z,7.30
2018-12-08T15:39:26.881Z,7.30
2018-12-08T15:41:54.402Z,7.20
2018-12-08T15:44:21.893Z,7.20
2018-12-08T15:46:49.384Z,7.10
2018-12-08T15:49:16.999Z,7.10
2018-12-08T15:51:44.489Z,7.20
2018-12-08T15:54:12.009Z,7.20
2018-12-08T15:56:39.529Z,7.10
2018-12-08T15:59:07.029Z,7.20
2018-12-08T16:01:34.549Z,7.20
2018-12-08T16:04:02.041Z,7.20
2018-12-08T16:06:29.574Z,7.20
2018-12-08T16:08:57.066Z,7.20
2018-12-08T16:11:24.594Z,7.20
2018-12-08T16:13:52.134Z,7.20
2018-12-08T16:16:19.663Z,7.10
2018-12-08T16:18:47.248Z,7.20
2018-12-08T16:21:14.869Z,7.10
2018-12-08T16:23:42.370Z,7.10
2018-12-08T16:26:09.886Z,7.10
2018-12-08T16:28:37.505Z,7.10
2018-12-08T16:31:05.021Z,7.10
2018-12-08T16:33:32.518Z,7.10
2018-12-08T16:36:00.018Z,7.10
2018-12-08T16:38:27.524Z,7.20
2018-12-08T16:40:55.018Z,7.20
2018-12-08T16:43:22.529Z,7.20
2018-12-08T16:45:50.044Z,7.20
2018-12-08T16:48:17.533Z,7.10
2018-12-08T16:50:45.050Z,7.10
2018-12-08T16:53:12.579Z,7.10
2018-12-08T16:55:40.099Z,7.10
2018-12-08T16:58:07.585Z,7.10
2018-12-08T17:00:35.141Z,7.20
2018-12-08T17:03:02.652Z,7.10
2018-12-08T17:05:30.146Z,7.20
2018-12-08T17:07:57.666Z,7.20
2018-12-08T17:10:25.773Z,7.20
2018-12-08T17:12:53.290Z,7.20
2018-12-08T17:15:20.891Z,7.20
2018-12-08T17:17:48.408Z,7.20
2018-12-08T17:20:15.933Z,7.20
2018-12-08T17:22:43.466Z,7.20
2018-12-08T17:25:10.955Z,7.20
2018-12-08T17:27:38.432Z,7.20
2018-12-08T17:30:06.104Z,7.20
2018-12-08T17:32:33.589Z,7.20
2018-12-08T17:35:01.073Z,7.20
2018-12-08T17:37:28.564Z,7.20
2018-12-08T17:39:56.187Z,7.20
2018-12-08T17:42:23.721Z,7.20
2018-12-08T17:44:51.218Z,7.20
2018-12-08T17:47:18.721Z,7.20
2018-12-08T17:49:46.222Z,7.30
2018-12-08T17:52:13.711Z,7.30
2018-12-08T17:54:41.225Z,7.30
2018-12-08T17:57:08.723Z,7.40
2018-12-08T17:59:36.390Z,7.40
2018-12-08T18:02:04.995Z,7.30
2018-12-08T18:04:32.485Z,7.40
2018-12-08T18:07:00.002Z,7.40
2018-12-08T18:09:27.487Z,7.40
2018-12-08T18:11:54.995Z,7.40
2018-12-08T18:14:22.508Z,7.40
2018-12-08T18:16:50.007Z,7.50
2018-12-08T18:19:17.518Z,7.50
2018-12-08T18:21:45.124Z,7.60
2018-12-08T18:24:12.712Z,7.50
2018-12-08T18:26:40.328Z,7.60
2018-12-08T18:29:07.944Z,7.60
2018-12-08T18:31:35.470Z,7.50
2018-12-08T18:34:02.954Z,7.60
2018-12-08T18:36:30.456Z,7.60
2018-12-08T18:38:57.958Z,7.60
2018-12-08T18:41:25.472Z,7.60
2018-12-08T18:43:52.982Z,7.60
2018-12-08T18:46:20.466Z,7.60
2018-12-08T18:48:48.044Z,7.60
2018-12-08T18:51:15.546Z,7.60
2018-12-08T18:53:43.035Z,7.60
2018-12-08T18:56:10.545Z,7.60
2018-12-08T18:58:38.022Z,7.60
2018-12-08T19:01:05.586Z,7.60
2018-12-08T19:03:33.090Z,7.60
2018-12-08T19:06:00.584Z,7.70
2018-12-08T19:08:28.086Z,7.70
2018-12-08T19:10:55.594Z,7.60
2018-12-08T19:13:23.081Z,7.70
2018-12-08T19:15:50.592Z,7.70
2018-12-08T19:18:18.078Z,7.70
2018-12-08T19:20:45.584Z,7.70
2018-12-08T19:25:37.073Z,7.70
2018-12-08T19:28:04.581Z,7.70
2018-12-08T19:30:32.067Z,7.70
2018-12-08T19:32:59.578Z,7.80
2018-12-08T19:35:27.081Z,7.80
2018-12-08T19:37:54.561Z,7.80
2018-12-08T19:40:22.166Z,7.90
2018-12-08T19:42:49.650Z,7.80
2018-12-08T19:45:17.265Z,7.90
2018-12-08T19:47:44.747Z,7.90
2018-12-08T19:50:12.225Z,8.00
2018-12-08T19:52:39.717Z,7.90
2018-12-08T19:55:07.321Z,8.00
2018-12-08T19:57:34.919Z,8.00
2018-12-08T20:00:02.558Z,8.00
2018-12-08T20:02:30.126Z,8.00
2018-12-08T20:04:57.626Z,8.00
2018-12-08T20:07:25.149Z,8.00
2018-12-08T20:09:52.665Z,8.00
2018-12-08T20:12:20.154Z,8.10
2018-12-08T20:14:47.642Z,8.10
2018-12-08T20:17:15.142Z,8.10
2018-12-08T20:19:42.661Z,8.10
2018-12-08T20:22:10.168Z,8.10
2018-12-08T20:24:37.658Z,8.00
2018-12-08T20:27:05.139Z,8.10
2018-12-08T20:29:32.637Z,8.00
2018-12-08T20:32:00.133Z,8.00
2018-12-08T20:34:27.641Z,8.00
2018-12-08T20:36:55.156Z,8.00
2018-12-08T20:39:22.729Z,8.00
2018-12-08T20:41:50.253Z,8.00
2018-12-08T20:44:17.734Z,8.00
2018-12-08T20:46:45.242Z,8.00
2018-12-08T20:49:12.725Z,8.00
2018-12-08T20:51:40.207Z,8.10
2018-12-08T20:54:07.720Z,8.10
2018-12-08T20:56:35.202Z,8.20
2018-12-08T20:59:03.017Z,8.30
2018-12-08T21:01:30.526Z,8.30
2018-12-08T21:03:58.005Z,8.40
2018-12-08T21:06:25.504Z,8.40
2018-12-08T21:08:52.994Z,8.40
2018-12-08T21:11:20.499Z,8.40
2018-12-08T21:13:48.175Z,8.40
2018-12-08T21:16:15.729Z,8.40
2018-12-08T21:18:43.234Z,8.40
2018-12-08T21:21:10.750Z,8.40
2018-12-08T21:23:38.245Z,8.40
2018-12-08T21:26:05.816Z,8.40
2018-12-08T21:28:33.339Z,8.40
2018-12-08T21:31:00.925Z,8.40
2018-12-08T21:33:28.407Z,8.40
2018-12-08T21:35:55.918Z,8.30
2018-12-08T21:38:23.482Z,8.30
2018-12-08T21:40:51.006Z,8.30
2018-12-08T21:43:18.510Z,8.30
2018-12-08T21:45:45.993Z,8.30
2018-12-08T21:48:13.492Z,8.30
2018-12-08T21:50:40.982Z,8.30
2018-12-08T21:53:08.489Z,8.30
2018-12-08T21:55:35.994Z,8.30
2018-12-08T21:58:03.571Z,8.20
2018-12-08T22:00:31.074Z,8.20
2018-12-08T22:02:58.558Z,8.10
2018-12-08T22:05:26.125Z,8.10
2018-12-08T22:07:53.643Z,8.10
2018-12-08T22:10:21.121Z,8.10
2018-12-08T22:12:48.626Z,8.00
2018-12-08T22:15:16.494Z,8.00
2018-12-08T22:17:44.258Z,8.00
2018-12-08T22:20:11.857Z,8.00
2018-12-08T22:22:39.338Z,8.00
2018-12-08T22:25:06.837Z,8.00
2018-12-08T22:27:34.316Z,8.00
2018-12-08T22:30:01.804Z,8.00
2018-12-08T22:32:29.365Z,8.00
2018-12-08T22:34:56.946Z,8.10
2018-12-08T22:37:24.451Z,8.20
2018-12-08T22:39:51.949Z,8.30
2018-12-08T22:42:19.437Z,8.30
2018-12-08T22:44:46.939Z,8.40
2018-12-08T22:47:14.426Z,8.30
2018-12-08T22:49:41.929Z,8.30
2018-12-08T22:52:09.417Z,8.20
2018-12-08T22:54:36.937Z,8.20
2018-12-08T22:57:04.433Z,8.20
2018-12-08T22:59:31.917Z,8.10
2018-12-08T23:01:59.501Z,8.10
2018-12-08T23:04:26.983Z,8.10
2018-12-08T23:07:01.493Z,8.00
2018-12-08T23:09:29.134Z,8.00
2018-12-08T23:11:56.624Z,8.00
2018-12-08T23:14:24.159Z,8.00
2018-12-08T23:16:51.641Z,8.00
2018-12-08T23:19:19.141Z,8.00
2018-12-08T23:21:46.643Z,7.90
2018-12-08T23:24:14.125Z,7.90
2018-12-08T23:26:41.630Z,7.90
2018-12-08T23:29:09.131Z,8.00
2018-12-08T23:31:36.707Z,8.00
2018-12-08T23:34:04.211Z,8.00
2018-12-08T23:36:31.811Z,8.00
2018-12-08T23:38:59.403Z,8.00
2018-12-08T23:41:26.907Z,8.00
2018-12-08T23:43:54.394Z,8.00
2018-12-08T23:46:21.920Z,8.00
2018-12-08T23:48:49.405Z,8.00
2018-12-08T23:51:18.491Z,8.00
2018-12-08T23:53:46.226Z,7.90
2018-12-08T23:56:13.705Z,7.90
2018-12-08T23:58:41.211Z,7.90
